AXY751M KLAS-SKCG
Flight info
| Callsign | AXY751M |
|---|---|
| Flight time | N/A |
| Altitude | 41000 |
| Route | RASLR3 ZAYNE DCT DRK J231 NABOB DCT EWM DCT FIGMO J2 FST J138 SAT DCT BOINT DCT SEAGL DCT TABSA DCT ILUBA DCT PESTO DCT ROPOL DCT UBSUX UBSUX2A |
| Aircraft | A343/H-SDE2E3FGHIJ4J5M1RWXY/LB1D1 |
Departure
| Time | N/A |
|---|---|
| Airport | Harry Reid International Airport (KLAS) |
Arrival
| Time | 2026-04-30 20:28 |
|---|---|
| Airport | Rafael Nuñez International Airport (SKCG) |
| Time | Latitude | Longitude | Altitude | Speed | Heading |
|---|---|---|---|---|---|
| 2026-04-30 17:39 | 31.21608 | -103.94598 | 41050 ft | 543 kts | 111° |
| 2026-04-30 17:42 | 31.10314 | -103.52692 | 41034 ft | 540 kts | 111° |
| 2026-04-30 17:43 | 31.04629 | -103.31823 | 41027 ft | 539 kts | 111° |
| 2026-04-30 17:44 | 30.97794 | -103.06926 | 40996 ft | 537 kts | 112° |
| 2026-04-30 17:47 | 30.87970 | -102.69500 | 40994 ft | 537 kts | 111° |
| 2026-04-30 17:48 | 30.80397 | -102.40425 | 41007 ft | 535 kts | 111° |
| 2026-04-30 17:50 | 30.71707 | -102.07423 | 41023 ft | 534 kts | 111° |
| 2026-04-30 17:52 | 30.65134 | -101.82709 | 41018 ft | 533 kts | 111° |
| 2026-04-30 17:54 | 30.55014 | -101.45061 | 41033 ft | 533 kts | 112° |
| 2026-04-30 17:56 | 30.37095 | -100.79544 | 41040 ft | 533 kts | 112° |
| 2026-04-30 17:58 | 30.23475 | -100.30676 | 41013 ft | 532 kts | 112° |
| 2026-04-30 18:00 | 30.05031 | -99.65733 | 40991 ft | 531 kts | 113° |
| 2026-04-30 18:01 | 29.93365 | -99.25333 | 40998 ft | 531 kts | 112° |
| 2026-04-30 18:02 | 29.76372 | -98.78352 | 40989 ft | 530 kts | 117° |
| 2026-04-30 18:04 | 29.57258 | -98.32833 | 40971 ft | 525 kts | 127° |
| 2026-04-30 18:06 | 29.26218 | -97.75956 | 40934 ft | 527 kts | 127° |
| 2026-04-30 18:08 | 28.98845 | -97.26369 | 40935 ft | 527 kts | 127° |
| 2026-04-30 18:10 | 28.67351 | -96.70044 | 40905 ft | 527 kts | 127° |
| 2026-04-30 18:11 | 28.36848 | -96.23740 | 40904 ft | 522 kts | 134° |
| 2026-04-30 18:13 | 28.14065 | -95.92113 | 40925 ft | 512 kts | 134° |
| 2026-04-30 18:14 | 27.91489 | -95.61011 | 40924 ft | 512 kts | 134° |
| 2026-04-30 18:15 | 27.64202 | -95.23715 | 40924 ft | 514 kts | 134° |
| 2026-04-30 18:16 | 27.45979 | -94.98987 | 40917 ft | 514 kts | 134° |
| 2026-04-30 18:17 | 27.36818 | -94.86609 | 40915 ft | 515 kts | 134° |
| 2026-04-30 18:18 | 27.24527 | -94.70055 | 40915 ft | 514 kts | 134° |
| 2026-04-30 18:18 | 27.15396 | -94.57800 | 40905 ft | 514 kts | 134° |
| 2026-04-30 18:19 | 27.06212 | -94.45506 | 40894 ft | 513 kts | 134° |
| 2026-04-30 18:19 | 26.97025 | -94.33244 | 40891 ft | 513 kts | 134° |
| 2026-04-30 18:20 | 26.87840 | -94.21019 | 40897 ft | 512 kts | 134° |
| 2026-04-30 18:20 | 26.78670 | -94.08846 | 40891 ft | 511 kts | 134° |
| 2026-04-30 18:21 | 26.69508 | -93.96718 | 40890 ft | 509 kts | 133° |
| 2026-04-30 18:21 | 26.60349 | -93.84627 | 40900 ft | 508 kts | 133° |
| 2026-04-30 18:22 | 26.51308 | -93.72478 | 40906 ft | 509 kts | 130° |
| 2026-04-30 18:22 | 26.38722 | -93.53516 | 40907 ft | 509 kts | 130° |
| 2026-04-30 18:23 | 26.30185 | -93.40927 | 40917 ft | 509 kts | 130° |
| 2026-04-30 18:23 | 26.21636 | -93.28358 | 40915 ft | 509 kts | 130° |
| 2026-04-30 18:24 | 26.08761 | -93.09483 | 40917 ft | 510 kts | 130° |
| 2026-04-30 18:25 | 26.00161 | -92.96919 | 40916 ft | 510 kts | 130° |
| 2026-04-30 18:25 | 25.87343 | -92.78255 | 40917 ft | 507 kts | 130° |
| 2026-04-30 18:26 | 25.74472 | -92.59592 | 40924 ft | 507 kts | 130° |
| 2026-04-30 18:27 | 25.61569 | -92.40956 | 40924 ft | 508 kts | 130° |
| 2026-04-30 18:28 | 25.48678 | -92.22412 | 40924 ft | 508 kts | 130° |
| 2026-04-30 18:28 | 25.35732 | -92.03861 | 40924 ft | 507 kts | 130° |
| 2026-04-30 18:29 | 25.18427 | -91.79179 | 40943 ft | 508 kts | 130° |
| 2026-04-30 18:30 | 25.01084 | -91.54571 | 40943 ft | 507 kts | 130° |
| 2026-04-30 18:31 | 24.88139 | -91.36285 | 40934 ft | 507 kts | 130° |
| 2026-04-30 18:32 | 24.75099 | -91.17936 | 40934 ft | 507 kts | 130° |
| 2026-04-30 18:33 | 24.62035 | -90.99622 | 40934 ft | 507 kts | 130° |
| 2026-04-30 18:33 | 24.48948 | -90.81345 | 40934 ft | 507 kts | 129° |
| 2026-04-30 18:34 | 24.35904 | -90.63198 | 40934 ft | 507 kts | 129° |
| 2026-04-30 18:35 | 24.27140 | -90.51043 | 40933 ft | 507 kts | 129° |
| 2026-04-30 18:35 | 24.18378 | -90.38920 | 40924 ft | 507 kts | 129° |
| 2026-04-30 18:36 | 24.05253 | -90.20816 | 40925 ft | 506 kts | 129° |
| 2026-04-30 18:37 | 23.92112 | -90.02757 | 40924 ft | 506 kts | 129° |
| 2026-04-30 18:37 | 23.83333 | -89.90729 | 40925 ft | 506 kts | 129° |
| 2026-04-30 18:38 | 23.74609 | -89.78811 | 40924 ft | 506 kts | 130° |
| 2026-04-30 18:38 | 23.65558 | -89.67028 | 40916 ft | 506 kts | 131° |
| 2026-04-30 18:39 | 23.56497 | -89.55283 | 40925 ft | 506 kts | 130° |
| 2026-04-30 18:39 | 23.47451 | -89.43537 | 40924 ft | 505 kts | 130° |
| 2026-04-30 18:40 | 23.38396 | -89.31811 | 40924 ft | 505 kts | 130° |
| 2026-04-30 18:40 | 23.29413 | -89.20206 | 40915 ft | 504 kts | 130° |
| 2026-04-30 18:41 | 23.20368 | -89.08547 | 40916 ft | 504 kts | 130° |
| 2026-04-30 18:41 | 23.11301 | -88.96887 | 40915 ft | 504 kts | 130° |
| 2026-04-30 18:42 | 23.02229 | -88.85247 | 40915 ft | 504 kts | 130° |
| 2026-04-30 18:42 | 22.88626 | -88.67844 | 40916 ft | 504 kts | 130° |
| 2026-04-30 18:45 | 22.38614 | -88.04362 | 40943 ft | 504 kts | 130° |
| 2026-04-30 18:46 | 22.29488 | -87.92861 | 40943 ft | 504 kts | 130° |
| 2026-04-30 18:46 | 22.20385 | -87.81414 | 40943 ft | 504 kts | 130° |
| 2026-04-30 18:47 | 22.11239 | -87.69938 | 40943 ft | 504 kts | 130° |
| 2026-04-30 18:47 | 22.02074 | -87.58463 | 40943 ft | 503 kts | 130° |
| 2026-04-30 18:48 | 21.92920 | -87.47027 | 40943 ft | 502 kts | 130° |
| 2026-04-30 18:48 | 21.83789 | -87.35644 | 40952 ft | 502 kts | 130° |
| 2026-04-30 18:49 | 21.74648 | -87.24273 | 40952 ft | 502 kts | 130° |
| 2026-04-30 18:49 | 21.65567 | -87.13000 | 40952 ft | 501 kts | 130° |
| 2026-04-30 18:50 | 21.56445 | -87.01700 | 40951 ft | 500 kts | 130° |
| 2026-04-30 18:50 | 21.47294 | -86.90389 | 40961 ft | 500 kts | 130° |
| 2026-04-30 18:51 | 21.38172 | -86.79136 | 40961 ft | 499 kts | 130° |
| 2026-04-30 18:51 | 21.29104 | -86.67973 | 40961 ft | 499 kts | 130° |
| 2026-04-30 18:52 | 21.19975 | -86.56757 | 40961 ft | 498 kts | 130° |
| 2026-04-30 18:52 | 21.10856 | -86.45577 | 40961 ft | 497 kts | 130° |
| 2026-04-30 18:53 | 21.01741 | -86.34425 | 40961 ft | 497 kts | 130° |
| 2026-04-30 18:53 | 20.92682 | -86.23365 | 40964 ft | 481 kts | 130° |
| 2026-04-30 18:54 | 20.83957 | -86.12731 | 40962 ft | 477 kts | 130° |
| 2026-04-30 18:54 | 20.75200 | -86.02078 | 40953 ft | 476 kts | 130° |
| 2026-04-30 18:55 | 20.66448 | -85.91453 | 40952 ft | 475 kts | 130° |
| 2026-04-30 18:55 | 20.53335 | -85.75571 | 40962 ft | 475 kts | 130° |
| 2026-04-30 18:56 | 20.40302 | -85.59830 | 40952 ft | 474 kts | 130° |
| 2026-04-30 18:57 | 20.27177 | -85.44022 | 40952 ft | 474 kts | 130° |
| 2026-04-30 18:57 | 20.18429 | -85.33510 | 40952 ft | 474 kts | 130° |
| 2026-04-30 18:58 | 20.05859 | -85.17327 | 40955 ft | 474 kts | 128° |
| 2026-04-30 18:59 | 19.93222 | -85.01127 | 40952 ft | 473 kts | 129° |
| 2026-04-30 19:00 | 19.76392 | -84.79637 | 40954 ft | 473 kts | 129° |
| 2026-04-30 19:01 | 19.59567 | -84.58230 | 40954 ft | 474 kts | 129° |
| 2026-04-30 19:02 | 19.46878 | -84.42136 | 40952 ft | 474 kts | 129° |
| 2026-04-30 19:03 | 19.31348 | -84.22497 | 40954 ft | 474 kts | 129° |
| 2026-04-30 19:04 | 19.14449 | -84.01199 | 40943 ft | 473 kts | 129° |
| 2026-04-30 19:05 | 18.97440 | -83.79838 | 40943 ft | 475 kts | 130° |
| 2026-04-30 19:06 | 18.80403 | -83.58515 | 40943 ft | 474 kts | 131° |
| 2026-04-30 19:06 | 18.67678 | -83.42637 | 40943 ft | 474 kts | 131° |
| 2026-04-30 19:07 | 18.54890 | -83.26721 | 40952 ft | 474 kts | 131° |
| 2026-04-30 19:08 | 18.37802 | -83.05517 | 40952 ft | 474 kts | 131° |
| 2026-04-30 19:09 | 18.24991 | -82.89666 | 40953 ft | 474 kts | 132° |
| 2026-04-30 19:09 | 18.16489 | -82.79169 | 40952 ft | 474 kts | 132° |
| 2026-04-30 19:10 | 17.99342 | -82.58055 | 40953 ft | 475 kts | 133° |
| 2026-04-30 19:11 | 17.86475 | -82.42254 | 40952 ft | 474 kts | 133° |
| 2026-04-30 19:12 | 17.77888 | -82.31727 | 40952 ft | 474 kts | 133° |
| 2026-04-30 19:12 | 17.69288 | -82.21200 | 40927 ft | 475 kts | 133° |
| 2026-04-30 19:13 | 17.52131 | -82.00258 | 40924 ft | 474 kts | 133° |
| 2026-04-30 19:14 | 17.43532 | -81.89781 | 40925 ft | 473 kts | 133° |
| 2026-04-30 19:14 | 17.34942 | -81.79336 | 40924 ft | 473 kts | 133° |
| 2026-04-30 19:15 | 17.26356 | -81.68911 | 40925 ft | 472 kts | 133° |
| 2026-04-30 19:15 | 17.13475 | -81.53302 | 40923 ft | 471 kts | 133° |
| 2026-04-30 19:16 | 17.04906 | -81.42939 | 40915 ft | 470 kts | 133° |
| 2026-04-30 19:17 | 16.92114 | -81.27497 | 40925 ft | 470 kts | 134° |
| 2026-04-30 19:17 | 16.79268 | -81.12025 | 40924 ft | 469 kts | 134° |
| 2026-04-30 19:18 | 16.66438 | -80.96607 | 40926 ft | 468 kts | 134° |
| 2026-04-30 19:19 | 16.57880 | -80.86343 | 40925 ft | 468 kts | 134° |
| 2026-04-30 19:19 | 16.50905 | -80.77990 | 40921 ft | 474 kts | 134° |
| 2026-04-30 19:20 | 16.46626 | -80.72870 | 40926 ft | 468 kts | 134° |
| 2026-04-30 19:21 | 16.40208 | -80.65198 | 40925 ft | 467 kts | 134° |
| 2026-04-30 19:22 | 16.31678 | -80.55014 | 40915 ft | 467 kts | 134° |
| 2026-04-30 19:23 | 16.18877 | -80.39750 | 40909 ft | 467 kts | 134° |
| 2026-04-30 19:24 | 16.12454 | -80.32106 | 40907 ft | 467 kts | 134° |
| 2026-04-30 19:25 | 16.01770 | -80.19410 | 40898 ft | 466 kts | 134° |
| 2026-04-30 19:26 | 15.93218 | -80.09264 | 40901 ft | 466 kts | 134° |
| 2026-04-30 19:27 | 15.86827 | -80.01691 | 40892 ft | 466 kts | 134° |
| 2026-04-30 19:28 | 15.80411 | -79.94096 | 40897 ft | 466 kts | 134° |
| 2026-04-30 19:29 | 15.71848 | -79.83972 | 40898 ft | 466 kts | 134° |
| 2026-04-30 19:30 | 15.63308 | -79.73890 | 40900 ft | 466 kts | 134° |
| 2026-04-30 19:31 | 15.54735 | -79.63781 | 40896 ft | 466 kts | 135° |
| 2026-04-30 19:31 | 15.48334 | -79.56244 | 40897 ft | 466 kts | 135° |
| 2026-04-30 19:32 | 15.44049 | -79.51201 | 40899 ft | 466 kts | 135° |
| 2026-04-30 19:32 | 15.39754 | -79.46152 | 40895 ft | 466 kts | 135° |
| 2026-04-30 19:33 | 15.35469 | -79.41116 | 40899 ft | 466 kts | 135° |
| 2026-04-30 19:33 | 15.31179 | -79.36079 | 40896 ft | 466 kts | 135° |
| 2026-04-30 19:34 | 15.26886 | -79.31041 | 40890 ft | 466 kts | 135° |
| 2026-04-30 19:35 | 15.20480 | -79.23531 | 40901 ft | 466 kts | 135° |
| 2026-04-30 19:35 | 15.16188 | -79.18502 | 40898 ft | 466 kts | 135° |
| 2026-04-30 19:36 | 15.11901 | -79.13483 | 40899 ft | 465 kts | 135° |
| 2026-04-30 19:36 | 15.05465 | -79.05955 | 40899 ft | 465 kts | 135° |
| 2026-04-30 19:37 | 15.01179 | -79.00948 | 40900 ft | 465 kts | 136° |
| 2026-04-30 19:37 | 14.96888 | -78.95938 | 40888 ft | 465 kts | 136° |
| 2026-04-30 19:38 | 14.92585 | -78.90917 | 40889 ft | 465 kts | 136° |
| 2026-04-30 19:38 | 14.88325 | -78.85948 | 40886 ft | 465 kts | 136° |
| 2026-04-30 19:39 | 14.84037 | -78.80949 | 40889 ft | 465 kts | 136° |
| 2026-04-30 19:39 | 14.79743 | -78.75947 | 40886 ft | 465 kts | 136° |
| 2026-04-30 19:40 | 14.75438 | -78.70934 | 40887 ft | 465 kts | 136° |
| 2026-04-30 19:40 | 14.71151 | -78.65944 | 40889 ft | 464 kts | 136° |
| 2026-04-30 19:41 | 14.66889 | -78.60986 | 40887 ft | 464 kts | 136° |
| 2026-04-30 19:41 | 14.62569 | -78.55965 | 40890 ft | 464 kts | 136° |
| 2026-04-30 19:42 | 14.58301 | -78.51010 | 40893 ft | 464 kts | 136° |
| 2026-04-30 19:42 | 14.54010 | -78.46030 | 40881 ft | 464 kts | 136° |
| 2026-04-30 19:43 | 14.49719 | -78.41053 | 40880 ft | 464 kts | 136° |
| 2026-04-30 19:44 | 14.43279 | -78.33591 | 40890 ft | 464 kts | 136° |
| 2026-04-30 19:44 | 14.38981 | -78.28614 | 40891 ft | 464 kts | 136° |
| 2026-04-30 19:45 | 14.33409 | -78.22166 | 40883 ft | 463 kts | 136° |
| 2026-04-30 19:45 | 14.24871 | -78.12297 | 40875 ft | 463 kts | 136° |
| 2026-04-30 19:46 | 14.16273 | -78.02370 | 40880 ft | 463 kts | 136° |
| 2026-04-30 19:46 | 14.07691 | -77.92474 | 40871 ft | 463 kts | 136° |
| 2026-04-30 19:47 | 13.99156 | -77.82646 | 40878 ft | 463 kts | 136° |
| 2026-04-30 19:47 | 13.90570 | -77.72768 | 40871 ft | 463 kts | 136° |
| 2026-04-30 19:48 | 13.81970 | -77.62888 | 40862 ft | 463 kts | 137° |
| 2026-04-30 19:48 | 13.73377 | -77.53027 | 40875 ft | 462 kts | 137° |
| 2026-04-30 19:49 | 13.64769 | -77.43171 | 40859 ft | 461 kts | 137° |
| 2026-04-30 19:49 | 13.54694 | -77.35372 | 40860 ft | 452 kts | 150° |
| 2026-04-30 19:49 | 13.51285 | -77.32916 | 40860 ft | 452 kts | 150° |
| 2026-04-30 19:50 | 13.40970 | -77.25505 | 40854 ft | 452 kts | 150° |
| 2026-04-30 19:50 | 13.34863 | -77.21122 | 40978 ft | 454 kts | 150° |
| 2026-04-30 19:51 | 13.32282 | -77.19272 | 40854 ft | 458 kts | 150° |
| 2026-04-30 19:51 | 13.29652 | -77.17385 | 40840 ft | 453 kts | 150° |
| 2026-04-30 19:51 | 13.24531 | -77.13714 | 40842 ft | 451 kts | 150° |
| 2026-04-30 19:52 | 13.19391 | -77.10033 | 40841 ft | 451 kts | 150° |
| 2026-04-30 19:52 | 13.14237 | -77.06342 | 40841 ft | 451 kts | 150° |
| 2026-04-30 19:53 | 13.09095 | -77.02662 | 40832 ft | 451 kts | 150° |
| 2026-04-30 19:53 | 13.03940 | -76.98973 | 40823 ft | 451 kts | 150° |
| 2026-04-30 19:54 | 12.98825 | -76.95316 | 40822 ft | 451 kts | 150° |
| 2026-04-30 19:54 | 12.93678 | -76.91638 | 40823 ft | 451 kts | 150° |
| 2026-04-30 19:55 | 12.88528 | -76.87960 | 40823 ft | 451 kts | 150° |
| 2026-04-30 19:55 | 12.83410 | -76.84307 | 40823 ft | 450 kts | 150° |
| 2026-04-30 19:56 | 12.78265 | -76.80636 | 40820 ft | 450 kts | 150° |
| 2026-04-30 19:56 | 12.73123 | -76.76969 | 40811 ft | 450 kts | 150° |
| 2026-04-30 19:57 | 12.67905 | -76.73447 | 40818 ft | 445 kts | 158° |
| 2026-04-30 19:57 | 12.62323 | -76.70770 | 40812 ft | 442 kts | 161° |
| 2026-04-30 19:58 | 12.56707 | -76.68173 | 40804 ft | 442 kts | 160° |
| 2026-04-30 19:58 | 12.51102 | -76.65572 | 40804 ft | 442 kts | 160° |
| 2026-04-30 19:59 | 12.45489 | -76.62963 | 40804 ft | 442 kts | 160° |
| 2026-04-30 20:00 | 12.37111 | -76.59071 | 40804 ft | 442 kts | 160° |
| 2026-04-30 20:00 | 12.31507 | -76.56468 | 40795 ft | 442 kts | 160° |
| 2026-04-30 20:01 | 12.23091 | -76.52561 | 40795 ft | 442 kts | 160° |
| 2026-04-30 20:01 | 12.17483 | -76.49960 | 40795 ft | 442 kts | 160° |
| 2026-04-30 20:02 | 12.09105 | -76.46075 | 40761 ft | 442 kts | 160° |
| 2026-04-30 20:03 | 12.03562 | -76.43503 | 40289 ft | 432 kts | 161° |
| 2026-04-30 20:03 | 12.00843 | -76.42243 | 39977 ft | 428 kts | 161° |
| 2026-04-30 20:03 | 11.98117 | -76.40982 | 39572 ft | 427 kts | 161° |
| 2026-04-30 20:03 | 11.95410 | -76.39731 | 39180 ft | 426 kts | 161° |
| 2026-04-30 20:04 | 11.92716 | -76.38485 | 38799 ft | 424 kts | 161° |
| 2026-04-30 20:04 | 11.90030 | -76.37241 | 38424 ft | 423 kts | 161° |
| 2026-04-30 20:04 | 11.87388 | -76.36018 | 38035 ft | 421 kts | 161° |
| 2026-04-30 20:05 | 11.82076 | -76.33560 | 37267 ft | 417 kts | 161° |
| 2026-04-30 20:05 | 11.79432 | -76.32338 | 36886 ft | 415 kts | 161° |
| 2026-04-30 20:05 | 11.74200 | -76.29917 | 36134 ft | 411 kts | 161° |
| 2026-04-30 20:06 | 11.71605 | -76.28717 | 35748 ft | 409 kts | 161° |
| 2026-04-30 20:06 | 11.69034 | -76.27530 | 35367 ft | 410 kts | 161° |
| 2026-04-30 20:06 | 11.66430 | -76.26328 | 34919 ft | 411 kts | 161° |
| 2026-04-30 20:06 | 11.63820 | -76.25124 | 34359 ft | 412 kts | 161° |
| 2026-04-30 20:07 | 11.61208 | -76.23921 | 33757 ft | 413 kts | 161° |
| 2026-04-30 20:07 | 11.58586 | -76.22714 | 33090 ft | 415 kts | 161° |
| 2026-04-30 20:07 | 11.53280 | -76.20264 | 31685 ft | 421 kts | 160° |
| 2026-04-30 20:08 | 11.50591 | -76.19024 | 30978 ft | 426 kts | 160° |
| 2026-04-30 20:08 | 11.47877 | -76.17771 | 30457 ft | 431 kts | 160° |
| 2026-04-30 20:08 | 11.45175 | -76.16524 | 29918 ft | 432 kts | 160° |
| 2026-04-30 20:08 | 11.42442 | -76.15262 | 29354 ft | 430 kts | 159° |
| 2026-04-30 20:09 | 11.39713 | -76.14002 | 28777 ft | 428 kts | 159° |
| 2026-04-30 20:09 | 11.37011 | -76.12756 | 28212 ft | 425 kts | 159° |
| 2026-04-30 20:09 | 11.31643 | -76.10284 | 27093 ft | 421 kts | 159° |
| 2026-04-30 20:10 | 11.26322 | -76.07834 | 25932 ft | 417 kts | 158° |
| 2026-04-30 20:10 | 11.23715 | -76.06634 | 25360 ft | 415 kts | 158° |
| 2026-04-30 20:10 | 11.21059 | -76.05411 | 24788 ft | 413 kts | 158° |
| 2026-04-30 20:11 | 11.15885 | -76.03031 | 23649 ft | 407 kts | 158° |
| 2026-04-30 20:11 | 11.13309 | -76.01845 | 23089 ft | 405 kts | 158° |
| 2026-04-30 20:11 | 11.10754 | -76.00670 | 22523 ft | 402 kts | 157° |
| 2026-04-30 20:12 | 11.05686 | -75.98339 | 21403 ft | 396 kts | 157° |
| 2026-04-30 20:12 | 11.03191 | -75.97190 | 20941 ft | 390 kts | 156° |
| 2026-04-30 20:12 | 11.00727 | -75.96058 | 20515 ft | 384 kts | 157° |
| 2026-04-30 20:13 | 10.98298 | -75.94944 | 19983 ft | 382 kts | 156° |
| 2026-04-30 20:13 | 10.95904 | -75.93845 | 19435 ft | 381 kts | 156° |
| 2026-04-30 20:13 | 10.93499 | -75.92741 | 18887 ft | 377 kts | 156° |
| 2026-04-30 20:13 | 10.91111 | -75.91644 | 18337 ft | 375 kts | 156° |
| 2026-04-30 20:14 | 10.88748 | -75.90560 | 17803 ft | 371 kts | 156° |
| 2026-04-30 20:14 | 10.86398 | -75.89481 | 17259 ft | 368 kts | 156° |
| 2026-04-30 20:14 | 10.84069 | -75.88412 | 16737 ft | 364 kts | 156° |
| 2026-04-30 20:14 | 10.81795 | -75.87368 | 16179 ft | 362 kts | 156° |
| 2026-04-30 20:15 | 10.79503 | -75.86316 | 15625 ft | 360 kts | 156° |
| 2026-04-30 20:15 | 10.77218 | -75.85268 | 15069 ft | 358 kts | 156° |
| 2026-04-30 20:15 | 10.74953 | -75.84229 | 14525 ft | 356 kts | 155° |
| 2026-04-30 20:15 | 10.72705 | -75.83199 | 13984 ft | 354 kts | 155° |
| 2026-04-30 20:16 | 10.70472 | -75.82173 | 13451 ft | 351 kts | 155° |
| 2026-04-30 20:16 | 10.68248 | -75.81152 | 12909 ft | 349 kts | 155° |
| 2026-04-30 20:16 | 10.66040 | -75.80140 | 12368 ft | 347 kts | 155° |
| 2026-04-30 20:16 | 10.63845 | -75.79135 | 11814 ft | 345 kts | 155° |
| 2026-04-30 20:17 | 10.61655 | -75.78131 | 11263 ft | 343 kts | 155° |
| 2026-04-30 20:17 | 10.59488 | -75.77137 | 10697 ft | 341 kts | 155° |
| 2026-04-30 20:17 | 10.57332 | -75.76149 | 10224 ft | 336 kts | 155° |
| 2026-04-30 20:17 | 10.55252 | -75.75196 | 10097 ft | 320 kts | 155° |
| 2026-04-30 20:18 | 10.53294 | -75.74301 | 9986 ft | 306 kts | 155° |
| 2026-04-30 20:18 | 10.51391 | -75.73430 | 9857 ft | 294 kts | 155° |
| 2026-04-30 20:18 | 10.49538 | -75.72582 | 9498 ft | 292 kts | 155° |
| 2026-04-30 20:18 | 10.47700 | -75.71740 | 9174 ft | 286 kts | 155° |
| 2026-04-30 20:19 | 10.45932 | -75.70932 | 8810 ft | 270 kts | 154° |
| 2026-04-30 20:19 | 10.44792 | -75.70410 | 8446 ft | 262 kts | 154° |
| 2026-04-30 20:19 | 10.42590 | -75.69401 | 7867 ft | 263 kts | 154° |
| 2026-04-30 20:19 | 10.40928 | -75.68641 | 7554 ft | 262 kts | 155° |
| 2026-04-30 20:20 | 10.39267 | -75.67880 | 7249 ft | 260 kts | 154° |
| 2026-04-30 20:20 | 10.37663 | -75.67146 | 7064 ft | 244 kts | 154° |
| 2026-04-30 20:20 | 10.36168 | -75.66463 | 6709 ft | 231 kts | 154° |
| 2026-04-30 20:20 | 10.34719 | -75.65801 | 6285 ft | 226 kts | 154° |
| 2026-04-30 20:21 | 10.33293 | -75.65149 | 5852 ft | 225 kts | 154° |
| 2026-04-30 20:21 | 10.31870 | -75.64491 | 5601 ft | 224 kts | 154° |
| 2026-04-30 20:21 | 10.30457 | -75.63845 | 5389 ft | 221 kts | 154° |
| 2026-04-30 20:21 | 10.29089 | -75.63217 | 5231 ft | 208 kts | 153° |
| 2026-04-30 20:22 | 10.27893 | -75.62465 | 4866 ft | 199 kts | 137° |
| 2026-04-30 20:22 | 10.27045 | -75.61396 | 4421 ft | 196 kts | 116° |
| 2026-04-30 20:22 | 10.26636 | -75.60092 | 3987 ft | 193 kts | 96° |
| 2026-04-30 20:22 | 10.26542 | -75.58734 | 3556 ft | 193 kts | 92° |
| 2026-04-30 20:23 | 10.26504 | -75.57376 | 3190 ft | 192 kts | 91° |
| 2026-04-30 20:23 | 10.26464 | -75.56062 | 3041 ft | 180 kts | 91° |
| 2026-04-30 20:23 | 10.26451 | -75.54790 | 3004 ft | 180 kts | 86° |
| 2026-04-30 20:23 | 10.26732 | -75.53563 | 2992 ft | 180 kts | 65° |
| 2026-04-30 20:24 | 10.27495 | -75.52574 | 2980 ft | 180 kts | 34° |
| 2026-04-30 20:24 | 10.28629 | -75.52080 | 2892 ft | 178 kts | 19° |
| 2026-04-30 20:24 | 10.29854 | -75.51895 | 2646 ft | 181 kts | 3° |
| 2026-04-30 20:24 | 10.31097 | -75.51853 | 2378 ft | 180 kts | 5° |
| 2026-04-30 20:25 | 10.33462 | -75.51738 | 1925 ft | 163 kts | 3° |
| 2026-04-30 20:25 | 10.34605 | -75.51689 | 1695 ft | 165 kts | 2° |
| 2026-04-30 20:26 | 10.36877 | -75.51593 | 1259 ft | 159 kts | 360° |
| 2026-04-30 20:26 | 10.38973 | -75.51506 | 832 ft | 142 kts | 1° |
| 2026-04-30 20:26 | 10.39930 | -75.51462 | 668 ft | 138 kts | 2° |
| 2026-04-30 20:27 | 10.41834 | -75.51388 | 342 ft | 132 kts | 2° |
| 2026-04-30 20:27 | 10.43576 | -75.51317 | 55 ft | 106 kts | 2° |
| 2026-04-30 20:28 | 10.44375 | -75.51285 | 55 ft | 29 kts | 2° |
| 2026-04-30 20:28 | 10.44661 | -75.51258 | 55 ft | 8 kts | 51° |
| 2026-04-30 20:29 | 10.44668 | -75.51144 | 55 ft | 8 kts | 98° |
| 2026-04-30 20:30 | 10.44657 | -75.51050 | 55 ft | 3 kts | 92° |
| 2026-04-30 20:30 | 10.44657 | -75.51049 | 48 ft | 0 kts | 92° |
| 2026-04-30 20:34 | 10.44657 | -75.51052 | 55 ft | 0 kts | 93° |
| 2026-04-30 20:35 | 10.44657 | -75.51050 | 48 ft | 0 kts | 93° |